createdAt,value
2017-08-07T00:00:02.666Z,24.4
2017-08-07T00:01:05.480Z,24.4
2017-08-07T00:02:07.893Z,24.4
2017-08-07T00:03:10.268Z,24.4
2017-08-07T00:04:13.321Z,24.4
2017-08-07T00:05:15.695Z,24.4
2017-08-07T00:06:18.724Z,24.4
2017-08-07T00:07:21.087Z,24.4
2017-08-07T00:08:23.495Z,24.4
2017-08-07T00:09:25.934Z,24.4
2017-08-07T00:10:28.303Z,24.4
2017-08-07T00:11:30.669Z,24.4
2017-08-07T00:12:33.050Z,24.4
2017-08-07T00:13:35.481Z,24.4
2017-08-07T00:14:37.924Z,24.4
2017-08-07T00:15:40.372Z,24.4
2017-08-07T00:16:42.775Z,24.4
2017-08-07T00:17:45.230Z,24.4
2017-08-07T00:18:47.669Z,24.4
2017-08-07T00:19:50.195Z,24.4
2017-08-07T00:20:52.829Z,24.4
2017-08-07T00:21:55.207Z,24.4
2017-08-07T00:22:57.736Z,24.4
2017-08-07T00:24:00.111Z,24.4
2017-08-07T00:25:02.500Z,24.4
2017-08-07T00:26:04.925Z,24.4
2017-08-07T00:27:07.295Z,24.4
2017-08-07T00:28:09.711Z,24.4
2017-08-07T00:29:12.140Z,24.4
2017-08-07T00:30:14.566Z,24.4
2017-08-07T00:31:16.956Z,24.4
2017-08-07T00:32:19.296Z,24.4
2017-08-07T00:33:21.652Z,24.4
2017-08-07T00:34:24.042Z,24.4
2017-08-07T00:35:26.480Z,24.4
2017-08-07T00:36:28.912Z,24.4
2017-08-07T00:37:31.318Z,24.4
2017-08-07T00:38:33.738Z,24.4
2017-08-07T00:39:36.058Z,24.4
2017-08-07T00:40:38.452Z,24.4
2017-08-07T00:41:40.885Z,24.4
2017-08-07T00:42:43.270Z,24.4
2017-08-07T00:43:45.690Z,24.4
2017-08-07T00:44:48.152Z,24.4
2017-08-07T00:45:50.529Z,24.4
2017-08-07T00:46:52.874Z,24.4
2017-08-07T00:47:55.294Z,24.4
2017-08-07T00:48:57.687Z,24.4
2017-08-07T00:50:00.028Z,24.4
2017-08-07T00:51:02.351Z,24.4
2017-08-07T00:52:04.721Z,24.4
2017-08-07T00:53:07.065Z,24.4
2017-08-07T00:54:09.566Z,24.4
2017-08-07T00:55:11.873Z,24.4
2017-08-07T00:56:14.218Z,24.4
2017-08-07T00:57:16.621Z,24.4
2017-08-07T00:58:18.985Z,24.4
2017-08-07T00:59:21.342Z,24.4
2017-08-07T01:00:23.688Z,24.4
2017-08-07T01:01:26.510Z,24.4
2017-08-07T01:02:28.848Z,24.4
2017-08-07T01:03:31.238Z,24.4
2017-08-07T01:04:33.610Z,24.4
2017-08-07T01:05:35.961Z,24.4
2017-08-07T01:06:38.342Z,24.4
2017-08-07T01:07:40.896Z,24.4
2017-08-07T01:08:43.243Z,24.4
2017-08-07T01:09:45.581Z,24.4
2017-08-07T01:10:48.006Z,24.4
2017-08-07T01:11:50.318Z,24.4
2017-08-07T01:12:52.632Z,24.4
2017-08-07T01:13:54.978Z,24.4
2017-08-07T01:14:57.348Z,24.4
2017-08-07T01:15:59.755Z,24.4
2017-08-07T01:17:02.135Z,24.4
2017-08-07T01:18:04.452Z,24.4
2017-08-07T01:19:07.084Z,24.4
2017-08-07T01:20:09.452Z,24.4
2017-08-07T01:21:11.888Z,24.4
2017-08-07T01:22:14.311Z,24.4
2017-08-07T01:23:16.660Z,24.4
2017-08-07T01:24:19.055Z,24.4
2017-08-07T01:25:21.419Z,24.4
2017-08-07T01:26:23.747Z,24.4
2017-08-07T01:27:26.082Z,24.4
2017-08-07T01:28:28.601Z,24.4
2017-08-07T01:29:31.011Z,24.4
2017-08-07T01:30:33.393Z,24.4
2017-08-07T01:31:35.724Z,24.4
2017-08-07T01:32:38.143Z,24.4
2017-08-07T01:33:40.508Z,24.4
2017-08-07T01:34:42.947Z,24.4
2017-08-07T01:35:45.277Z,24.4
2017-08-07T01:36:47.991Z,24.4
2017-08-07T01:37:50.362Z,24.4
2017-08-07T01:38:53.119Z,24.4
2017-08-07T01:39:55.499Z,24.4
2017-08-07T01:40:57.912Z,24.4
2017-08-07T01:42:00.224Z,24.4
2017-08-07T01:43:02.636Z,24.4
2017-08-07T01:44:04.963Z,24.4
2017-08-07T01:45:07.406Z,24.4
2017-08-07T01:46:09.711Z,24.4
2017-08-07T01:47:12.090Z,24.4
2017-08-07T01:48:14.445Z,24.4
2017-08-07T01:49:16.951Z,24.4
2017-08-07T01:50:19.340Z,24.4
2017-08-07T01:51:21.724Z,24.4
2017-08-07T01:52:24.126Z,24.4
2017-08-07T01:53:26.557Z,24.4
2017-08-07T01:54:29.359Z,24.4
2017-08-07T01:55:32.199Z,24.4
2017-08-07T01:56:34.536Z,24.4
2017-08-07T01:57:37.002Z,24.4
2017-08-07T01:58:39.311Z,24.4
2017-08-07T01:59:41.600Z,24.4
2017-08-07T02:00:43.906Z,24.4
2017-08-07T02:01:46.268Z,24.4
2017-08-07T02:02:48.629Z,24.4
2017-08-07T02:03:50.972Z,24.4
2017-08-07T02:04:53.324Z,24.4
2017-08-07T02:05:55.723Z,24.4
2017-08-07T02:06:58.339Z,24.4
2017-08-07T02:08:00.682Z,24.4
2017-08-07T02:09:03.100Z,24.4
2017-08-07T02:10:05.483Z,24.4
2017-08-07T02:11:07.982Z,24.4
2017-08-07T02:12:10.296Z,24.4
2017-08-07T02:13:12.623Z,24.4
2017-08-07T02:14:15.112Z,24.4
2017-08-07T02:15:17.484Z,24.4
2017-08-07T02:16:19.816Z,24.4
2017-08-07T02:17:22.176Z,24.4
2017-08-07T02:18:24.497Z,24.4
2017-08-07T02:19:26.882Z,24.4
2017-08-07T02:20:29.440Z,24.4
2017-08-07T02:21:31.805Z,24.4
2017-08-07T02:22:34.128Z,24.4
2017-08-07T02:23:36.485Z,24.4
2017-08-07T02:24:38.825Z,24.4
2017-08-07T02:25:41.171Z,24.4
2017-08-07T02:26:43.506Z,24.4
2017-08-07T02:27:45.840Z,24.4
2017-08-07T02:28:48.237Z,24.4
2017-08-07T02:29:50.564Z,24.4
2017-08-07T02:30:52.938Z,24.4
2017-08-07T02:31:55.300Z,24.4
2017-08-07T02:32:57.625Z,24.4
2017-08-07T02:34:00.215Z,24.4
2017-08-07T02:35:02.706Z,24.4
2017-08-07T02:36:05.044Z,24.4
2017-08-07T02:37:07.515Z,24.4
2017-08-07T02:38:09.897Z,24.4
2017-08-07T02:39:12.330Z,24.4
2017-08-07T02:40:14.671Z,24.4
2017-08-07T02:41:17.052Z,24.4
2017-08-07T02:42:19.407Z,24.4
2017-08-07T02:43:21.875Z,24.4
2017-08-07T02:44:24.248Z,24.4
2017-08-07T02:45:26.803Z,24.4
2017-08-07T02:46:29.186Z,24.4
2017-08-07T02:47:32.022Z,24.4
2017-08-07T02:48:34.327Z,24.4
2017-08-07T02:49:36.743Z,24.4
2017-08-07T02:50:39.122Z,24.4
2017-08-07T02:51:41.466Z,24.4
2017-08-07T02:52:43.856Z,24.4
2017-08-07T02:53:46.175Z,24.4
2017-08-07T02:54:48.477Z,24.4
2017-08-07T02:55:50.932Z,24.4
2017-08-07T02:56:53.741Z,24.4
2017-08-07T02:57:56.222Z,24.4
2017-08-07T02:58:58.556Z,24.4
2017-08-07T03:00:00.882Z,24.4
2017-08-07T03:01:03.240Z,24.4
2017-08-07T03:02:05.607Z,24.4
2017-08-07T03:03:08.087Z,24.4
2017-08-07T03:04:10.432Z,24.4
2017-08-07T03:05:12.768Z,24.4
2017-08-07T03:06:15.078Z,24.4
2017-08-07T03:07:17.529Z,24.4
2017-08-07T03:08:19.924Z,24.4
2017-08-07T03:09:22.270Z,24.4
2017-08-07T03:10:24.666Z,24.4
2017-08-07T03:11:27.142Z,24.4
2017-08-07T03:12:29.645Z,24.4
2017-08-07T03:13:31.983Z,24.4
2017-08-07T03:14:34.583Z,24.4
2017-08-07T03:15:36.935Z,24.4
2017-08-07T03:16:39.315Z,24.4
2017-08-07T03:17:41.714Z,24.4
2017-08-07T03:18:44.093Z,24.4
2017-08-07T03:19:46.416Z,24.4
2017-08-07T03:20:48.763Z,24.4
2017-08-07T03:21:51.078Z,24.4
2017-08-07T03:22:53.419Z,24.4
2017-08-07T03:23:55.764Z,24.4
2017-08-07T03:24:58.272Z,24.4
2017-08-07T03:26:00.705Z,24.4
2017-08-07T03:27:03.080Z,24.4
2017-08-07T03:28:05.475Z,24.4
2017-08-07T03:29:07.877Z,24.4
2017-08-07T03:30:10.190Z,24.4
2017-08-07T03:31:12.557Z,24.4
2017-08-07T03:32:14.881Z,24.4
2017-08-07T03:33:17.487Z,24.4
2017-08-07T03:34:20.153Z,24.4
2017-08-07T03:35:22.474Z,24.4
2017-08-07T03:36:24.845Z,24.4
2017-08-07T03:37:27.239Z,24.4
2017-08-07T03:38:29.680Z,24.4
2017-08-07T03:39:32.017Z,24.4
2017-08-07T03:40:34.468Z,24.4
2017-08-07T03:41:36.825Z,24.4
2017-08-07T03:42:39.232Z,24.4
2017-08-07T03:43:41.617Z,24.4
2017-08-07T03:44:43.934Z,24.4
2017-08-07T03:45:46.370Z,24.4
2017-08-07T03:46:48.906Z,24.4
2017-08-07T03:47:51.232Z,24.4
2017-08-07T03:48:53.596Z,24.4
2017-08-07T03:49:55.912Z,24.4
2017-08-07T03:50:58.374Z,24.4
2017-08-07T03:52:01.135Z,24.4
2017-08-07T03:53:03.546Z,24.4
2017-08-07T03:54:06.019Z,24.4
2017-08-07T03:55:08.434Z,24.4
2017-08-07T03:56:10.785Z,24.4
2017-08-07T03:57:13.211Z,24.4
2017-08-07T03:58:15.521Z,24.4
2017-08-07T03:59:18.327Z,24.4
2017-08-07T04:00:21.132Z,24.4
2017-08-07T04:01:23.488Z,24.4
2017-08-07T04:02:25.866Z,24.4
2017-08-07T04:03:28.256Z,24.4
2017-08-07T04:04:30.676Z,24.4
2017-08-07T04:05:33.080Z,24.4
2017-08-07T04:06:35.439Z,24.4
2017-08-07T04:07:37.853Z,24.4
2017-08-07T04:08:40.226Z,24.4
2017-08-07T04:09:42.641Z,24.4
2017-08-07T04:10:45.007Z,24.4
2017-08-07T04:11:47.390Z,24.4
2017-08-07T04:12:49.762Z,24.4
2017-08-07T04:13:52.209Z,24.4
2017-08-07T04:14:54.559Z,24.4
2017-08-07T04:15:56.916Z,24.4
2017-08-07T04:16:59.306Z,24.4
2017-08-07T04:18:01.669Z,24.4
2017-08-07T04:19:04.108Z,24.4
2017-08-07T04:20:06.483Z,24.4
2017-08-07T04:21:09.004Z,24.4
2017-08-07T04:22:11.356Z,24.4
2017-08-07T04:23:13.720Z,24.4
2017-08-07T04:24:16.094Z,24.4
2017-08-07T04:25:18.508Z,24.4
2017-08-07T04:26:20.833Z,24.4
2017-08-07T04:27:23.159Z,24.4
2017-08-07T04:28:25.514Z,24.4
2017-08-07T04:29:28.001Z,24.4
2017-08-07T04:30:30.393Z,24.4
2017-08-07T04:31:32.753Z,24.4
2017-08-07T04:32:35.054Z,24.4
2017-08-07T04:33:37.412Z,24.4
2017-08-07T04:34:39.783Z,24.4
2017-08-07T04:35:42.123Z,24.4
2017-08-07T04:36:44.588Z,24.4
2017-08-07T04:37:47.038Z,24.4
2017-08-07T04:38:49.383Z,24.4
2017-08-07T04:39:51.760Z,24.4
2017-08-07T04:40:54.133Z,24.4
2017-08-07T04:41:56.548Z,24.4
2017-08-07T04:42:59.081Z,24.4
2017-08-07T04:44:01.476Z,24.4
2017-08-07T04:45:03.865Z,24.4
2017-08-07T04:46:06.289Z,24.4
2017-08-07T04:47:08.727Z,24.4
2017-08-07T04:48:11.092Z,24.4
2017-08-07T04:49:13.485Z,24.4
2017-08-07T04:50:15.875Z,24.4
2017-08-07T04:51:18.361Z,24.4
2017-08-07T04:52:20.782Z,24.4
2017-08-07T04:53:23.156Z,24.4
2017-08-07T04:54:25.508Z,24.4
2017-08-07T04:55:27.972Z,24.4
2017-08-07T04:56:30.398Z,24.4
2017-08-07T04:57:32.765Z,24.4
2017-08-07T04:58:35.085Z,24.4
2017-08-07T04:59:37.577Z,24.4
2017-08-07T05:00:39.979Z,24.4
2017-08-07T05:01:42.413Z,24.4
2017-08-07T05:02:44.843Z,24.4
2017-08-07T05:03:47.365Z,24.4
2017-08-07T05:04:49.776Z,24.4
2017-08-07T05:05:52.202Z,24.4
2017-08-07T05:06:54.603Z,24.4
2017-08-07T05:07:57.028Z,24.4
2017-08-07T05:08:59.370Z,24.4
2017-08-07T05:10:01.836Z,24.4
2017-08-07T05:11:04.277Z,24.4
2017-08-07T05:12:06.712Z,24.4
2017-08-07T05:13:09.068Z,24.4
2017-08-07T05:14:11.465Z,24.4
2017-08-07T05:15:13.979Z,24.4
2017-08-07T05:16:16.361Z,24.4
2017-08-07T05:17:18.827Z,24.4
2017-08-07T05:18:21.235Z,24.4
2017-08-07T05:19:23.976Z,24.4
2017-08-07T05:20:26.372Z,24.4
2017-08-07T05:21:28.796Z,24.4
2017-08-07T05:22:31.425Z,24.4
2017-08-07T05:23:33.775Z,24.4
2017-08-07T05:24:36.228Z,24.4
2017-08-07T05:25:38.692Z,24.4
2017-08-07T05:26:41.104Z,24.4
2017-08-07T05:27:43.626Z,24.4
2017-08-07T05:28:46.021Z,24.4
2017-08-07T05:29:48.469Z,24.4
2017-08-07T05:30:50.822Z,24.4
2017-08-07T05:31:53.785Z,24.4
2017-08-07T05:32:56.186Z,24.4
2017-08-07T05:33:58.699Z,24.4
2017-08-07T05:35:01.096Z,24.4
2017-08-07T05:36:03.533Z,24.4
2017-08-07T05:37:05.918Z,24.4
2017-08-07T05:38:08.425Z,24.4
2017-08-07T05:39:10.908Z,24.4
2017-08-07T05:40:13.282Z,24.4
2017-08-07T05:41:15.708Z,24.4
2017-08-07T05:42:18.073Z,24.4
2017-08-07T05:43:20.469Z,24.4
2017-08-07T05:45:32.754Z,24.4
2017-08-07T05:46:35.133Z,24.4
2017-08-07T05:47:37.694Z,24.4
2017-08-07T05:48:40.185Z,24.4
2017-08-07T05:49:42.759Z,24.4
2017-08-07T05:50:45.161Z,24.4
2017-08-07T05:52:58.933Z,24.4
2017-08-07T05:54:01.313Z,24.4
2017-08-07T05:55:03.708Z,24.4
2017-08-07T05:56:06.093Z,24.4
2017-08-07T05:57:08.499Z,24.4
2017-08-07T05:58:11.123Z,24.4
2017-08-07T05:59:13.509Z,24.4
2017-08-07T06:00:15.874Z,24.4
2017-08-07T06:01:18.262Z,24.4
2017-08-07T06:02:20.618Z,24.4
2017-08-07T06:03:23.012Z,24.4
2017-08-07T06:04:25.428Z,24.4
2017-08-07T06:05:27.806Z,24.4
2017-08-07T06:06:30.147Z,24.4
2017-08-07T06:07:33.170Z,24.4
2017-08-07T06:08:35.509Z,24.4
2017-08-07T06:09:37.993Z,24.4
2017-08-07T06:10:40.343Z,24.4
2017-08-07T06:11:42.732Z,24.4
2017-08-07T06:12:45.139Z,24.4
2017-08-07T06:13:48.038Z,24.4
2017-08-07T06:14:50.463Z,24.4
2017-08-07T06:15:52.777Z,24.4
2017-08-07T06:16:55.175Z,24.4
2017-08-07T06:17:57.662Z,24.4
2017-08-07T06:19:00.071Z,24.4
2017-08-07T06:20:02.456Z,24.4
2017-08-07T06:21:04.772Z,24.4
2017-08-07T06:22:07.214Z,24.4
2017-08-07T06:23:09.669Z,24.4
2017-08-07T06:24:12.083Z,24.4
2017-08-07T06:25:14.464Z,24.4
2017-08-07T06:26:16.797Z,24.4
2017-08-07T06:27:19.233Z,24.4
2017-08-07T06:28:21.620Z,24.4
2017-08-07T06:29:23.979Z,24.4
2017-08-07T06:30:26.385Z,24.4
2017-08-07T06:31:28.804Z,24.4
2017-08-07T06:32:31.240Z,24.4
2017-08-07T06:33:33.611Z,24.4
2017-08-07T06:34:35.995Z,24.4
2017-08-07T06:35:38.424Z,24.4
2017-08-07T06:36:40.763Z,24.4
2017-08-07T06:37:43.151Z,24.4
2017-08-07T06:38:45.556Z,24.4
2017-08-07T06:39:47.948Z,24.4
2017-08-07T06:40:50.437Z,24.4
2017-08-07T06:41:52.813Z,24.4
2017-08-07T06:42:55.192Z,24.4
2017-08-07T06:43:57.740Z,24.4
2017-08-07T06:45:00.138Z,24.4
2017-08-07T06:46:02.590Z,24.4
2017-08-07T06:47:05.155Z,24.4
2017-08-07T06:48:07.580Z,24.4
2017-08-07T06:49:09.923Z,24.4
2017-08-07T06:50:12.286Z,24.4
2017-08-07T06:51:14.677Z,24.4
2017-08-07T06:52:17.113Z,24.4
2017-08-07T06:53:19.531Z,24.4
2017-08-07T06:54:21.896Z,24.4
2017-08-07T06:55:24.282Z,24.4
2017-08-07T06:56:26.662Z,24.4
2017-08-07T06:57:29.021Z,24.4
2017-08-07T06:58:31.423Z,24.4
2017-08-07T06:59:33.805Z,24.4
2017-08-07T07:00:36.176Z,24.4
2017-08-07T07:01:38.606Z,24.4
2017-08-07T07:02:41.044Z,24.4
2017-08-07T07:03:43.434Z,24.4
2017-08-07T07:04:46.374Z,24.4
2017-08-07T07:05:48.824Z,24.4
2017-08-07T07:06:51.180Z,24.4
2017-08-07T07:07:53.882Z,24.4
2017-08-07T07:08:57.281Z,24.4
2017-08-07T07:09:59.666Z,24.4
2017-08-07T07:11:02.107Z,24.4
2017-08-07T07:12:04.443Z,24.4
2017-08-07T07:13:06.912Z,24.4
2017-08-07T07:14:09.736Z,24.4
2017-08-07T07:15:13.235Z,24.4
2017-08-07T07:16:15.588Z,24.4
2017-08-07T07:17:18.022Z,24.4
2017-08-07T07:18:20.721Z,24.4
2017-08-07T07:19:23.120Z,24.4
2017-08-07T07:20:25.629Z,24.4
2017-08-07T07:21:27.981Z,24.4
2017-08-07T07:22:30.415Z,24.4
2017-08-07T07:23:32.782Z,24.4
2017-08-07T07:24:35.183Z,24.4
2017-08-07T07:25:37.676Z,24.4
2017-08-07T07:26:40.070Z,24.4
2017-08-07T07:27:42.466Z,24.4
2017-08-07T07:28:44.870Z,24.4
2017-08-07T07:29:47.378Z,24.4
2017-08-07T07:30:49.794Z,24.4
2017-08-07T07:31:52.312Z,24.4
2017-08-07T07:32:54.828Z,24.4
2017-08-07T07:33:57.280Z,24.4
2017-08-07T07:34:59.799Z,24.4
2017-08-07T07:36:02.311Z,24.4
2017-08-07T07:37:04.798Z,24.4
2017-08-07T07:38:07.288Z,24.4
2017-08-07T07:39:09.677Z,24.4
2017-08-07T07:40:12.108Z,24.4
2017-08-07T07:41:14.470Z,24.4
2017-08-07T07:42:16.877Z,24.4
2017-08-07T07:43:19.336Z,24.4
2017-08-07T07:44:21.768Z,24.4
2017-08-07T07:45:24.165Z,24.4
2017-08-07T07:46:26.621Z,24.4
2017-08-07T07:47:29.149Z,24.4
2017-08-07T07:48:32.177Z,24.4
2017-08-07T07:49:34.560Z,24.4
2017-08-07T07:50:36.965Z,24.4
2017-08-07T07:51:39.481Z,24.4
2017-08-07T07:52:41.961Z,24.4
2017-08-07T07:53:44.409Z,24.4
2017-08-07T07:54:46.843Z,24.4
2017-08-07T07:55:49.247Z,24.4
2017-08-07T07:56:51.689Z,24.4
2017-08-07T07:57:54.063Z,24.4
2017-08-07T07:58:56.467Z,24.4
2017-08-07T07:59:58.932Z,24.4
2017-08-07T08:01:01.477Z,24.4
2017-08-07T08:02:03.924Z,24.4
2017-08-07T08:03:06.358Z,24.4
2017-08-07T08:04:08.819Z,24.4
2017-08-07T08:05:11.278Z,24.4
2017-08-07T08:06:13.808Z,24.4
2017-08-07T08:07:16.246Z,24.4
2017-08-07T08:08:18.817Z,24.4
2017-08-07T08:09:21.271Z,24.4
2017-08-07T08:10:24.350Z,24.4
2017-08-07T08:11:26.788Z,24.4
2017-08-07T08:12:29.320Z,24.4
2017-08-07T08:13:33.942Z,24.4
2017-08-07T08:14:36.396Z,24.4
2017-08-07T08:15:38.913Z,24.4
2017-08-07T08:16:41.327Z,24.4
2017-08-07T08:17:43.780Z,24.4
2017-08-07T08:18:46.304Z,24.4
2017-08-07T08:19:48.732Z,24.4
2017-08-07T08:20:51.121Z,24.4
2017-08-07T08:21:53.511Z,24.4
2017-08-07T08:22:55.909Z,24.4
2017-08-07T08:23:58.475Z,24.4
2017-08-07T08:25:00.926Z,24.4
2017-08-07T08:26:03.331Z,24.4
2017-08-07T08:27:05.759Z,24.4
2017-08-07T08:28:08.261Z,24.4
2017-08-07T08:29:10.621Z,24.4
2017-08-07T08:30:14.366Z,24.4
2017-08-07T08:31:16.817Z,24.4
2017-08-07T08:32:19.358Z,24.4
2017-08-07T08:33:21.781Z,24.4
2017-08-07T08:34:24.232Z,24.4
2017-08-07T08:35:26.726Z,24.4
2017-08-07T08:36:29.238Z,24.4
2017-08-07T08:37:31.723Z,24.4
2017-08-07T08:38:34.314Z,24.4
2017-08-07T08:39:36.750Z,24.4
2017-08-07T08:40:39.279Z,24.4
2017-08-07T08:41:41.800Z,24.4
2017-08-07T08:42:44.235Z,24.4
2017-08-07T08:43:46.627Z,24.4
2017-08-07T08:44:49.125Z,24.4
2017-08-07T08:45:51.558Z,24.4
2017-08-07T08:46:53.953Z,24.4
2017-08-07T08:47:56.380Z,24.4
2017-08-07T08:48:58.820Z,24.4
2017-08-07T08:50:01.306Z,24.4
2017-08-07T08:51:03.780Z,24.4
2017-08-07T08:52:06.286Z,24.4
2017-08-07T08:53:08.856Z,24.4
2017-08-07T08:54:11.312Z,24.4
2017-08-07T08:55:13.802Z,24.4
2017-08-07T08:56:16.297Z,24.4
2017-08-07T08:57:18.815Z,24.4
2017-08-07T08:58:21.228Z,24.4
2017-08-07T08:59:23.624Z,24.4
2017-08-07T09:00:26.128Z,24.4
2017-08-07T09:01:28.669Z,24.4
2017-08-07T09:02:31.046Z,24.4
2017-08-07T09:03:33.518Z,24.4
2017-08-07T09:04:35.971Z,24.4
2017-08-07T09:05:38.472Z,24.4
2017-08-07T09:06:40.994Z,24.4
2017-08-07T09:07:44.440Z,24.4
2017-08-07T09:08:46.840Z,24.4
2017-08-07T09:09:49.291Z,24.4
2017-08-07T09:10:51.705Z,24.4
2017-08-07T09:11:54.244Z,24.4
2017-08-07T09:12:57.264Z,24.4
2017-08-07T09:13:59.730Z,24.4
2017-08-07T09:15:02.281Z,24.4
2017-08-07T09:16:04.902Z,24.4
2017-08-07T09:17:07.381Z,24.4
2017-08-07T09:18:09.967Z,24.4
2017-08-07T09:19:12.458Z,24.4
2017-08-07T09:20:14.872Z,24.4
2017-08-07T09:21:17.249Z,24.4
2017-08-07T09:22:19.622Z,24.4
2017-08-07T09:23:22.063Z,24.4
2017-08-07T09:24:24.509Z,24.4
2017-08-07T09:25:26.977Z,24.4
2017-08-07T09:26:29.423Z,24.4
2017-08-07T09:27:32.013Z,24.4
2017-08-07T09:28:36.410Z,24.4
2017-08-07T09:29:38.913Z,24.4
2017-08-07T09:30:41.418Z,24.4
2017-08-07T09:31:43.917Z,24.4
2017-08-07T09:32:46.346Z,24.4
2017-08-07T09:33:48.901Z,24.4
2017-08-07T09:34:51.299Z,24.4
2017-08-07T09:35:53.725Z,24.4
2017-08-07T09:36:56.290Z,24.4
2017-08-07T09:37:58.746Z,24.4
2017-08-07T09:39:01.159Z,24.4
2017-08-07T09:40:03.841Z,24.4
2017-08-07T09:41:06.327Z,24.4
2017-08-07T09:42:09.091Z,24.4
2017-08-07T09:43:11.628Z,24.4
2017-08-07T09:44:14.215Z,24.4
2017-08-07T09:45:16.599Z,24.4
2017-08-07T09:46:19.081Z,24.4
2017-08-07T09:47:21.423Z,24.4
2017-08-07T09:48:23.959Z,24.4
2017-08-07T09:49:26.353Z,24.4
2017-08-07T09:50:28.889Z,24.4
2017-08-07T09:51:31.321Z,24.4
2017-08-07T09:52:33.806Z,24.4
2017-08-07T09:53:36.253Z,24.4
2017-08-07T09:54:38.719Z,24.4
2017-08-07T09:55:41.147Z,24.4
2017-08-07T09:56:43.584Z,24.4
2017-08-07T09:57:45.999Z,24.4
2017-08-07T09:58:48.637Z,24.4
2017-08-07T09:59:51.716Z,24.4
2017-08-07T10:00:58.315Z,24.4
2017-08-07T10:02:00.743Z,24.4
2017-08-07T10:03:03.159Z,24.4
2017-08-07T10:04:05.556Z,24.4
2017-08-07T10:05:08.136Z,24.4
2017-08-07T10:06:10.624Z,24.4
2017-08-07T10:07:13.045Z,24.4
2017-08-07T10:08:15.459Z,24.4
2017-08-07T10:09:17.922Z,24.4
2017-08-07T10:10:20.317Z,24.4
2017-08-07T10:11:23.332Z,24.4
2017-08-07T10:12:25.689Z,24.4
2017-08-07T10:13:28.154Z,24.4
2017-08-07T10:14:30.652Z,24.4
2017-08-07T10:15:33.094Z,24.4
2017-08-07T10:16:35.529Z,24.4
2017-08-07T10:17:37.974Z,24.4
2017-08-07T10:18:40.448Z,24.4
2017-08-07T10:19:42.921Z,24.4
2017-08-07T10:20:45.380Z,24.4
2017-08-07T10:21:47.868Z,24.4
2017-08-07T10:22:50.481Z,24.4
2017-08-07T10:24:02.006Z,24.4
2017-08-07T10:25:04.588Z,24.4
2017-08-07T10:26:07.286Z,24.4
2017-08-07T10:27:09.989Z,24.4
2017-08-07T10:28:13.548Z,24.4
2017-08-07T10:29:15.947Z,24.4
2017-08-07T10:30:18.910Z,24.4
2017-08-07T10:31:21.477Z,24.4
2017-08-07T10:32:23.931Z,24.4
2017-08-07T10:33:26.415Z,24.4
2017-08-07T10:34:29.055Z,24.4
2017-08-07T10:35:31.552Z,24.4
2017-08-07T10:36:34.051Z,24.4
2017-08-07T10:37:36.851Z,24.4
2017-08-07T10:38:39.361Z,24.4
2017-08-07T10:39:41.801Z,24.4
2017-08-07T10:40:44.368Z,24.4
2017-08-07T10:41:46.783Z,24.4
2017-08-07T10:42:49.392Z,24.4
2017-08-07T10:43:51.874Z,24.4
2017-08-07T10:44:54.395Z,24.4
2017-08-07T10:45:56.875Z,24.4
2017-08-07T10:46:59.566Z,24.4
2017-08-07T10:48:02.121Z,24.4
2017-08-07T10:49:04.532Z,24.4
2017-08-07T10:50:07.041Z,24.4
2017-08-07T10:51:09.548Z,24.4
2017-08-07T10:52:12.005Z,24.4
2017-08-07T10:53:14.529Z,24.4
2017-08-07T10:54:16.938Z,24.4
2017-08-07T10:55:19.517Z,24.4
2017-08-07T10:56:22.082Z,24.4
2017-08-07T10:57:27.768Z,24.4
2017-08-07T10:58:30.388Z,24.4
2017-08-07T10:59:32.902Z,24.4
2017-08-07T11:00:35.394Z,24.4
2017-08-07T11:01:38.406Z,24.4
2017-08-07T11:02:41.634Z,24.4
2017-08-07T11:03:44.143Z,24.4
2017-08-07T11:04:46.683Z,24.4
2017-08-07T11:05:49.269Z,24.4
2017-08-07T11:06:53.784Z,24.4
2017-08-07T11:07:56.254Z,24.4
2017-08-07T11:08:59.110Z,24.4
2017-08-07T11:10:03.443Z,24.4
2017-08-07T11:11:06.239Z,24.4
2017-08-07T11:12:08.786Z,24.4
2017-08-07T11:13:11.394Z,24.4
2017-08-07T11:14:14.020Z,24.4
2017-08-07T11:15:16.628Z,24.4
2017-08-07T11:16:19.293Z,24.4
2017-08-07T11:17:21.821Z,24.4
2017-08-07T11:18:24.448Z,24.4
2017-08-07T11:19:26.944Z,24.4
2017-08-07T11:20:29.636Z,24.4
2017-08-07T11:21:32.512Z,24.4
2017-08-07T11:22:35.137Z,24.4
2017-08-07T11:23:44.562Z,24.4
2017-08-07T11:24:47.204Z,24.4
2017-08-07T11:25:50.148Z,24.4
2017-08-07T11:26:52.709Z,24.4
2017-08-07T11:27:55.817Z,24.4
2017-08-07T11:28:58.555Z,24.4
2017-08-07T11:30:01.085Z,24.4
2017-08-07T11:31:03.672Z,24.4
2017-08-07T11:32:06.148Z,24.4
2017-08-07T11:33:08.774Z,24.4
2017-08-07T11:34:11.335Z,24.4
2017-08-07T11:35:13.825Z,24.4
2017-08-07T11:36:16.316Z,24.4
2017-08-07T11:37:23.565Z,24.4
2017-08-07T11:38:35.000Z,24.4
2017-08-07T11:39:37.500Z,24.4
2017-08-07T11:40:40.057Z,24.4
2017-08-07T11:41:42.694Z,24.4
2017-08-07T11:42:45.839Z,24.4
2017-08-07T11:43:48.559Z,24.4
2017-08-07T11:44:52.037Z,24.4
2017-08-07T11:45:54.585Z,24.4
2017-08-07T11:46:57.174Z,24.4
2017-08-07T11:47:59.662Z,24.4
2017-08-07T11:49:02.094Z,24.4
2017-08-07T11:50:04.635Z,24.4
2017-08-07T11:51:07.172Z,24.4
2017-08-07T11:52:09.707Z,24.4
2017-08-07T11:53:12.328Z,24.4
2017-08-07T11:54:14.803Z,24.4
2017-08-07T11:55:17.290Z,24.4
2017-08-07T11:56:19.801Z,24.4
2017-08-07T11:57:22.276Z,24.4
2017-08-07T11:58:24.821Z,24.4
2017-08-07T11:59:27.416Z,24.4
2017-08-07T12:00:29.939Z,24.4
2017-08-07T12:01:32.547Z,24.4
2017-08-07T12:02:35.031Z,24.4
2017-08-07T12:03:38.176Z,24.4
2017-08-07T12:04:40.691Z,24.4
2017-08-07T12:05:44.117Z,24.4
2017-08-07T12:06:47.543Z,24.4
2017-08-07T12:07:50.016Z,24.4
2017-08-07T12:08:53.016Z,24.4
2017-08-07T12:09:55.501Z,24.4
2017-08-07T12:10:58.081Z,24.4
2017-08-07T12:12:00.463Z,24.4
2017-08-07T12:13:02.938Z,24.4
2017-08-07T12:14:06.472Z,24.4
2017-08-07T12:15:08.910Z,24.4
2017-08-07T12:16:11.464Z,24.4
2017-08-07T12:17:14.419Z,24.4
2017-08-07T12:18:16.939Z,24.4
2017-08-07T12:19:19.703Z,24.4
2017-08-07T12:20:22.228Z,24.4
2017-08-07T12:21:27.089Z,24.4
2017-08-07T12:22:30.035Z,24.4
2017-08-07T12:23:32.808Z,24.4
2017-08-07T12:24:35.425Z,24.4
2017-08-07T12:25:38.652Z,24.4
2017-08-07T12:26:41.188Z,24.4
2017-08-07T12:27:44.525Z,24.4
2017-08-07T12:28:48.491Z,24.4
2017-08-07T12:29:50.970Z,24.4
2017-08-07T12:30:53.505Z,24.4
2017-08-07T12:31:56.387Z,24.4
2017-08-07T12:32:30.291Z,28.4
2017-08-07T12:33:33.268Z,27.4
2017-08-07T12:34:36.013Z,27.6
2017-08-07T12:35:38.799Z,28.5
2017-08-07T12:36:41.793Z,28.3
2017-08-07T12:37:44.904Z,28.8
2017-08-07T12:38:48.706Z,28.8
2017-08-07T12:39:52.487Z,27.7
2017-08-07T12:41:04.752Z,28.3
2017-08-07T12:42:07.934Z,28.2
2017-08-07T12:43:13.295Z,27.4
2017-08-07T12:44:16.472Z,27.1
2017-08-07T12:45:19.756Z,26.7
2017-08-07T12:46:22.808Z,26.4
2017-08-07T12:47:25.802Z,25.9
2017-08-07T12:48:29.268Z,26.7
2017-08-07T12:49:32.509Z,26.7
2017-08-07T12:50:35.662Z,27
2017-08-07T12:51:38.642Z,25.9
2017-08-07T12:52:41.737Z,25.5
2017-08-07T12:53:44.778Z,25.4
2017-08-07T12:54:47.907Z,25.8
2017-08-07T12:55:51.478Z,26.4
2017-08-07T12:56:56.039Z,27.4
2017-08-07T12:58:02.862Z,27.8
2017-08-07T12:59:06.610Z,27.5
2017-08-07T13:00:10.657Z,26.4
2017-08-07T13:01:14.821Z,26.7
2017-08-07T13:02:19.421Z,25.8
2017-08-07T13:03:24.558Z,25.1
2017-08-07T13:04:28.141Z,25.6
2017-08-07T13:05:31.174Z,25.2
2017-08-07T13:06:34.983Z,25.3
2017-08-07T13:07:39.768Z,25.8
2017-08-07T13:08:43.777Z,26.2
2017-08-07T13:09:47.962Z,26.8
2017-08-07T13:10:54.229Z,27.1
2017-08-07T13:11:58.902Z,27.5
2017-08-07T13:13:04.453Z,27.7
2017-08-07T13:14:09.310Z,27.1
2017-08-07T13:15:12.353Z,27.3
2017-08-07T13:16:15.255Z,27.3
2017-08-07T13:17:18.129Z,27.9
2017-08-07T13:18:21.389Z,28
2017-08-07T13:19:24.481Z,28.4
2017-08-07T13:20:27.409Z,28.4
2017-08-07T13:21:30.549Z,28
2017-08-07T13:22:34.345Z,27.9
2017-08-07T13:23:37.403Z,27.2
2017-08-07T13:24:41.501Z,26.2
2017-08-07T13:25:44.488Z,25.4
2017-08-07T13:26:47.505Z,26.2
2017-08-07T13:27:51.701Z,25.5
2017-08-07T13:28:54.665Z,25.9
2017-08-07T13:29:57.497Z,25.4
2017-08-07T13:31:00.790Z,24.8
2017-08-07T13:32:03.539Z,25
2017-08-07T13:33:06.160Z,25.9
2017-08-07T13:34:08.894Z,26.2
2017-08-07T13:35:11.563Z,26.7
2017-08-07T13:36:14.899Z,25.9
2017-08-07T13:37:17.620Z,25.9
2017-08-07T13:38:20.355Z,26.6
2017-08-07T13:39:22.925Z,26.2
2017-08-07T13:40:25.727Z,26.3
2017-08-07T13:41:28.342Z,26.1
2017-08-07T13:42:30.897Z,25.5
2017-08-07T13:43:33.674Z,25.8
2017-08-07T13:44:37.853Z,26.2
2017-08-07T13:45:42.863Z,26
2017-08-07T13:46:45.533Z,25.6
2017-08-07T13:47:48.220Z,25.2
2017-08-07T13:48:50.793Z,25.3
2017-08-07T13:49:53.341Z,25.7
2017-08-07T13:50:55.796Z,26.5
2017-08-07T13:51:58.376Z,26.4
2017-08-07T13:53:01.040Z,26.4
2017-08-07T13:54:03.506Z,26.3
2017-08-07T13:55:06.036Z,26.3